Terminal Aerodrome Forecast
Issued by NWS Nashville, TN

Home | Current Version | Previous Version | Text Only | Print | Product List | Glossary On
Versions: 1 2 3 4 5 6 7 8 9 10 11 12 13 14 15 16 17 18 19 20 21 22 23 24 25 26 27 28 29 30
000
FTUS44 KOHX 180520
TAFCSV
TAF
KCSV 180520Z 1806/1906 18010G20KT P6SM BKN050 BKN100 WS020/20050KT
     FM181500 19015G25KT P6SM BKN040
     FM182200 21015G30KT 3SM SHRA OVC015
     FM190300 30015G25KT P6SM VCSH OVC015=

USA.gov is the U.S. government's official web portal to all federal, state and local government web resources and services.